Terminal Aerodrome Forecast
Issued by NWS Spokane, WA

Home | Current Version | Previous Version | Text Only | Print | Product List | Glossary On
Versions: 1 2 3 4 5 6 7 8 9 10 11 12 13 14 15 16 17 18 19 20 21 22 23 24 25 26 27 28 29 30 31 32 33 34 35 36 37 38 39 40 41 42 43 44 45 46 47 48 49 50
650
FTUS46 KOTX 222020 AAB
TAFGEG
TAF AMD
KGEG 222020Z 2220/2318 05005KT P6SM OVC015
     FM230000 18007KT P6SM VCSH SCT050 OVC070
     FM230700 20012KT P6SM -SHRA BKN009 OVC050
     FM231500 20015G24KT P6SM -RA BKN013 OVC040=

USA.gov is the U.S. government's official web portal to all federal, state and local government web resources and services.